Карточка аэропорта USSS

Внимание!
Информация на этой странице в стадии наполнения.
Если вы не увидели какой-то информации, или заметили неточность - пожалуйста сообщите нам!
Спасибо!
Команда RU-STAFF
Название аэропортаКольцово
Название аэропорта (англ.)Koltsovo
Превышение766 ft. (233.5 m.)
Координаты56°44.586', 60°48.186'
Высота перехода900m
Эшелон переходаQFE>=739mm:FL050; QFE 712mm-738mm:FL060; QFE<=712mm:FL70
Коды ответчика5520-5557
Зона ОрВДЕкатеринбург РПИ (USSV)
Данные METARUSSS 100100Z 00000MPS CAVOK 13/13 Q1020 R08L/010060 R08R/010060 NOSIG RMK QFE745/0993
Проноз погоды (TAF)USSS 091954Z 0921/1021 05003MPS 6000 SCT040 FM100400 15003G12MPS 9999 BKN030CB FM101600 20003MPS 6000 BKN020
NOTAMshow/hide NOTAM
AWOS   TABLE

Информация о ВПП

ВПП Длина ВПП (м.) Покрытие Курс ВПП Частота ILS
26L3026Бетон259109.5
08R3026Бетон79109.9
26R3004Асфальтобетон255110.5
08L3004Асфальтобетон75111.7

Диспетчерские позиции

Позывной Наименование органа УВД Частота
USSV_FSS_CTRКольцово Транзит131.900
USSS_ATIS_APPКольцово АТИС127.850
USSS_APPКольцово-Подход125.9
USSS_TWRКольцово-Старт124.3
USSSFM1Машина сопровождения119.000
USSS_GNDКольцово-Руление119.0
USSS_R_APPКольцово-Круг118.7



Спутниковое изображение